Terminal Aerodrome Forecast
Issued by NWS

Home | Current Version | Previous Version | Text Only | Print | Product List | Glossary On
Versions: 1 2 3 4 5 6 7 8 9 10 11 12 13
080
FTAK31 PAJN 300058 AAA
TAFAGY
TAF AMD
PAGY 300058Z 3001/3024 VRB06KT P6SM VCSH OVC080
      TEMPO 3001/3004 04015G25KT
     FM300600 20008KT P6SM BKN050
     FM301400 20012KT P6SM VCSH BKN050
      AMD LTD TO CLD VIS AND WIND=

USA.gov is the U.S. government's official web portal to all federal, state and local government web resources and services.